createdAt,value
2022-08-19T00:01:59.212Z,1.20
2022-08-19T00:04:32.097Z,2.10
2022-08-19T00:07:00.754Z,2.37
2022-08-19T00:09:29.597Z,3.30
2022-08-19T00:11:58.680Z,1.20
2022-08-19T00:14:28.550Z,1.40
2022-08-19T00:16:55.954Z,2.23
2022-08-19T00:19:24.886Z,4.37
2022-08-19T00:21:53.682Z,1.50
2022-08-19T00:24:22.062Z,1.80
2022-08-19T00:26:49.000Z,3.10
2022-08-19T00:29:18.908Z,1.47
2022-08-19T00:31:47.947Z,3.73
2022-08-19T00:34:18.288Z,1.43
2022-08-19T00:36:47.058Z,1.40
2022-08-19T00:39:16.434Z,1.93
2022-08-19T00:41:48.586Z,1.10
2022-08-19T00:44:20.911Z,4.27
2022-08-19T00:46:58.290Z,2.10
2022-08-19T00:49:28.878Z,1.10
2022-08-19T00:52:02.948Z,2.23
2022-08-19T00:54:32.380Z,1.10
2022-08-19T00:57:02.793Z,2.23
2022-08-19T00:59:56.373Z,3.97
2022-08-19T01:02:18.986Z,2.10
2022-08-19T01:04:46.152Z,2.30
2022-08-19T01:07:15.244Z,1.47
2022-08-19T01:09:45.082Z,2.50
2022-08-19T01:12:13.077Z,3.83
2022-08-19T01:14:41.326Z,3.30
2022-08-19T01:17:10.899Z,4.63
2022-08-19T01:19:44.246Z,4.10
2022-08-19T01:22:33.325Z,2.73
2022-08-19T01:25:02.020Z,1.60
2022-08-19T01:27:43.143Z,4.57
2022-08-19T01:30:14.592Z,2.10
2022-08-19T01:32:42.898Z,1.97
2022-08-19T01:35:11.903Z,3.20
2022-08-19T01:37:52.838Z,2.77
2022-08-19T01:40:22.296Z,2.73
2022-08-19T01:42:51.574Z,2.87
2022-08-19T01:45:21.574Z,1.70
2022-08-19T01:47:51.688Z,1.37
2022-08-19T01:50:31.928Z,1.57
2022-08-19T01:53:06.353Z,1.93
2022-08-19T01:55:41.364Z,2.60
2022-08-19T01:58:15.485Z,2.20
2022-08-19T02:00:46.254Z,1.80
2022-08-19T02:03:16.892Z,1.97
2022-08-19T02:05:44.754Z,1.90
2022-08-19T02:08:13.481Z,1.70
2022-08-19T02:10:43.840Z,1.50
2022-08-19T02:13:13.179Z,1.60
2022-08-19T02:15:40.864Z,2.70
2022-08-19T02:18:09.296Z,1.60
2022-08-19T02:20:39.426Z,4.07
2022-08-19T02:23:13.990Z,1.87
2022-08-19T02:25:46.401Z,2.00
2022-08-19T02:28:18.507Z,2.00
2022-08-19T02:30:47.760Z,1.83
2022-08-19T02:33:16.852Z,1.57
2022-08-19T02:35:45.894Z,1.90
2022-08-19T02:38:26.440Z,1.87
2022-08-19T02:40:59.230Z,2.60
2022-08-19T02:43:29.252Z,2.77
2022-08-19T02:46:01.308Z,2.70
2022-08-19T02:48:29.488Z,2.20
2022-08-19T02:50:57.007Z,3.00
2022-08-19T02:53:27.770Z,1.57
2022-08-19T02:55:56.090Z,1.80
2022-08-19T02:58:24.047Z,1.93
2022-08-19T03:00:56.608Z,2.00
2022-08-19T03:03:24.555Z,2.30
2022-08-19T03:05:56.253Z,2.57
2022-08-19T03:08:25.312Z,2.53
2022-08-19T03:10:54.039Z,1.93
2022-08-19T03:13:21.056Z,2.83
2022-08-19T03:15:49.540Z,2.07
2022-08-19T03:18:18.295Z,1.90
2022-08-19T03:20:49.011Z,1.80
2022-08-19T03:23:18.215Z,1.90
2022-08-19T03:25:58.346Z,3.90
2022-08-19T03:28:37.224Z,2.80
2022-08-19T03:31:44.530Z,2.63
2022-08-19T03:34:00.890Z,2.20
2022-08-19T03:36:29.671Z,3.33
2022-08-19T03:39:00.793Z,2.70
2022-08-19T03:41:44.627Z,2.30
2022-08-19T03:44:21.529Z,2.57
2022-08-19T03:46:52.739Z,3.10
2022-08-19T03:49:28.173Z,3.07
2022-08-19T03:51:58.028Z,3.00
2022-08-19T03:54:27.274Z,3.93
2022-08-19T03:56:56.895Z,4.67
2022-08-19T03:59:31.659Z,3.93
2022-08-19T04:02:02.078Z,5.33
2022-08-19T04:04:30.303Z,3.60
2022-08-19T04:06:59.402Z,3.70
2022-08-19T04:09:28.243Z,4.03
2022-08-19T04:11:57.683Z,5.20
2022-08-19T04:14:31.000Z,5.10
2022-08-19T04:16:59.682Z,3.80
2022-08-19T04:19:30.705Z,5.17
2022-08-19T04:21:59.281Z,3.83
2022-08-19T04:24:27.938Z,4.90
2022-08-19T04:26:55.373Z,4.20
2022-08-19T04:29:26.376Z,5.17
2022-08-19T04:31:56.539Z,4.20
2022-08-19T04:34:26.927Z,4.73
2022-08-19T04:36:57.178Z,4.77
2022-08-19T04:39:48.419Z,3.90
2022-08-19T04:42:37.239Z,4.23
2022-08-19T04:45:09.249Z,3.40
2022-08-19T04:47:47.443Z,4.87
2022-08-19T04:50:27.356Z,3.80
2022-08-19T04:52:56.593Z,4.17
2022-08-19T04:55:26.754Z,3.53
2022-08-19T04:57:56.118Z,4.80
2022-08-19T05:00:23.264Z,4.47
2022-08-19T05:02:51.599Z,4.37
2022-08-19T05:05:19.246Z,4.50
2022-08-19T05:07:47.198Z,5.20
2022-08-19T05:10:15.328Z,5.40
2022-08-19T05:12:43.028Z,4.60
2022-08-19T05:15:11.255Z,4.67
2022-08-19T05:17:39.408Z,4.73
2022-08-19T05:20:26.809Z,4.70
2022-08-19T05:22:55.186Z,4.80
2022-08-19T05:25:23.501Z,4.70
2022-08-19T05:27:51.534Z,7.83
2022-08-19T05:30:33.420Z,4.83
2022-08-19T05:33:10.991Z,4.67
2022-08-19T05:35:40.436Z,4.00
2022-08-19T05:38:09.288Z,4.40
2022-08-19T05:40:39.526Z,4.80
2022-08-19T05:43:09.232Z,4.40
2022-08-19T05:45:43.020Z,4.00
2022-08-19T05:48:14.266Z,3.83
2022-08-19T05:50:42.949Z,4.63
2022-08-19T05:53:10.377Z,4.20
2022-08-19T05:55:39.635Z,4.23
2022-08-19T05:58:08.591Z,7.03
2022-08-19T06:00:38.286Z,5.17
2022-08-19T06:03:11.698Z,5.80
2022-08-19T06:05:49.777Z,4.60
2022-08-19T06:08:20.143Z,5.47
2022-08-19T06:10:47.173Z,5.20
2022-08-19T06:13:15.169Z,4.70
2022-08-19T06:15:45.177Z,4.90
2022-08-19T06:18:12.938Z,4.20
2022-08-19T06:20:55.604Z,4.50
2022-08-19T06:23:24.156Z,4.00
2022-08-19T06:25:52.491Z,4.00
2022-08-19T06:28:20.370Z,4.90
2022-08-19T06:30:49.114Z,4.70
2022-08-19T06:33:16.130Z,4.10
2022-08-19T06:38:17.354Z,4.10
2022-08-19T06:40:45.136Z,5.20
2022-08-19T06:43:13.126Z,4.30
2022-08-19T06:45:41.170Z,6.13
2022-08-19T06:48:09.137Z,5.47
2022-08-19T06:50:39.826Z,5.70
2022-08-19T06:53:09.487Z,7.10
2022-08-19T06:55:38.008Z,5.80
2022-08-19T06:58:06.686Z,7.93
2022-08-19T07:00:34.714Z,6.57
2022-08-19T07:03:07.762Z,5.60
2022-08-19T07:05:45.526Z,7.27
2022-08-19T07:08:14.886Z,6.57
2022-08-19T07:10:46.691Z,5.53
2022-08-19T07:13:14.710Z,5.80
2022-08-19T07:15:42.134Z,6.40
2022-08-19T07:18:11.671Z,5.23
2022-08-19T07:20:41.954Z,5.70
2022-08-19T07:23:15.892Z,5.83
2022-08-19T07:25:52.483Z,6.33
2022-08-19T07:28:24.292Z,6.27
2022-08-19T07:30:53.163Z,5.80
2022-08-19T07:33:22.035Z,4.73
2022-08-19T07:35:50.638Z,7.20
2022-08-19T07:38:18.899Z,5.30
2022-08-19T07:40:47.281Z,4.53
2022-08-19T07:43:23.968Z,7.13
2022-08-19T07:45:59.357Z,4.30
2022-08-19T07:48:29.556Z,4.10
2022-08-19T07:51:02.677Z,5.20
2022-08-19T07:53:34.689Z,3.47
2022-08-19T07:56:06.687Z,4.17
2022-08-19T07:58:39.062Z,3.43
2022-08-19T08:01:09.069Z,3.90
2022-08-19T08:03:58.392Z,5.97
2022-08-19T08:06:43.824Z,3.50
2022-08-19T08:09:12.212Z,3.23
2022-08-19T08:11:56.495Z,4.73
2022-08-19T08:14:35.071Z,3.47
2022-08-19T08:17:05.292Z,4.20
2022-08-19T08:19:42.270Z,4.43
2022-08-19T08:22:34.618Z,5.87
2022-08-19T08:25:13.395Z,3.57
2022-08-19T08:27:45.258Z,3.37
2022-08-19T08:30:22.881Z,2.90
2022-08-19T08:32:51.950Z,3.40
2022-08-19T08:35:22.668Z,4.27
2022-08-19T08:37:53.256Z,4.57
2022-08-19T08:40:39.076Z,3.60
2022-08-19T08:43:11.337Z,4.17
2022-08-19T08:45:53.612Z,3.80
2022-08-19T08:48:37.038Z,5.30
2022-08-19T08:51:20.346Z,5.13
2022-08-19T08:53:56.176Z,4.60
2022-08-19T08:56:26.331Z,4.13
2022-08-19T08:59:11.094Z,5.07
2022-08-19T09:01:39.675Z,4.43
2022-08-19T09:04:09.085Z,5.70
2022-08-19T09:07:18.195Z,6.33
2022-08-19T09:09:56.298Z,5.60
2022-08-19T09:12:58.426Z,5.63
2022-08-19T09:15:42.287Z,6.23
2022-08-19T09:18:15.323Z,6.27
2022-08-19T09:20:49.013Z,6.30
2022-08-19T09:23:18.052Z,7.03
2022-08-19T09:25:54.785Z,7.70
2022-08-19T09:28:27.250Z,7.03
2022-08-19T09:30:55.224Z,6.40
2022-08-19T09:33:23.486Z,7.90
2022-08-19T09:35:53.667Z,8.03
2022-08-19T09:38:22.732Z,6.73
2022-08-19T09:40:51.135Z,6.40
2022-08-19T09:43:32.913Z,5.63
2022-08-19T09:46:02.911Z,6.83
2022-08-19T09:48:31.107Z,6.47
2022-08-19T09:51:07.640Z,4.93
2022-08-19T09:53:40.711Z,6.03
2022-08-19T09:56:09.431Z,4.43
2022-08-19T09:58:38.547Z,4.30
2022-08-19T10:01:08.029Z,8.87
2022-08-19T10:03:37.986Z,5.73
2022-08-19T10:06:14.652Z,5.13
2022-08-19T10:08:50.447Z,3.90
2022-08-19T10:11:27.941Z,3.80
2022-08-19T10:14:06.782Z,7.40
2022-08-19T10:16:39.516Z,4.83
2022-08-19T10:19:07.879Z,4.83
2022-08-19T10:21:35.526Z,5.53
2022-08-19T10:24:06.287Z,4.20
2022-08-19T10:26:38.075Z,5.37
2022-08-19T10:29:09.172Z,5.37
2022-08-19T10:32:00.858Z,5.10
2022-08-19T10:34:28.372Z,4.87
2022-08-19T10:37:00.580Z,4.80
2022-08-19T10:39:31.440Z,4.77
2022-08-19T10:42:04.883Z,4.57
2022-08-19T10:44:33.392Z,4.30
2022-08-19T10:47:01.281Z,4.60
2022-08-19T10:49:28.592Z,4.77
2022-08-19T10:52:18.978Z,5.27
2022-08-19T10:55:08.613Z,4.90
2022-08-19T11:00:25.279Z,3.87
2022-08-19T11:02:53.529Z,3.60
2022-08-19T11:05:24.455Z,3.23
2022-08-19T11:07:53.390Z,3.40
2022-08-19T11:10:22.008Z,3.30
2022-08-19T11:12:54.136Z,2.60
2022-08-19T11:15:22.671Z,2.63
2022-08-19T11:17:55.557Z,2.40
2022-08-19T11:20:24.851Z,2.50
2022-08-19T11:22:56.936Z,2.67
2022-08-19T11:25:25.290Z,2.20
2022-08-19T11:27:53.862Z,3.30
2022-08-19T11:30:21.326Z,3.70
2022-08-19T11:32:49.713Z,2.87
2022-08-19T11:35:20.978Z,2.60
2022-08-19T11:37:48.900Z,3.47
2022-08-19T11:40:17.220Z,3.10
2022-08-19T11:42:57.823Z,2.43
2022-08-19T11:45:27.674Z,3.20
2022-08-19T11:47:56.257Z,4.73
2022-08-19T11:50:25.392Z,2.93
2022-08-19T11:52:57.971Z,2.70
2022-08-19T11:55:25.962Z,3.13
2022-08-19T11:57:54.434Z,2.40
2022-08-19T12:00:22.612Z,4.00
2022-08-19T12:02:50.805Z,2.60
2022-08-19T12:05:18.552Z,3.50
2022-08-19T12:07:47.205Z,4.37
2022-08-19T12:10:18.466Z,2.73
2022-08-19T12:12:58.554Z,4.77
2022-08-19T12:15:29.798Z,3.20
2022-08-19T12:18:05.797Z,3.53
2022-08-19T12:20:36.844Z,3.10
2022-08-19T12:23:06.790Z,5.47
2022-08-19T12:25:35.507Z,4.20
2022-08-19T12:28:05.103Z,4.20
2022-08-19T12:30:33.137Z,3.70
2022-08-19T12:33:00.622Z,3.40
2022-08-19T12:35:29.770Z,2.97
2022-08-19T12:37:57.815Z,5.87
2022-08-19T12:40:26.446Z,3.60
2022-08-19T12:42:55.273Z,4.17
2022-08-19T12:45:23.466Z,4.40
2022-08-19T12:47:54.802Z,4.53
2022-08-19T12:50:22.700Z,5.80
2022-08-19T12:52:50.898Z,5.30
2022-08-19T12:55:19.675Z,4.17
2022-08-19T12:57:49.350Z,5.77
2022-08-19T13:00:21.797Z,4.70
2022-08-19T13:02:52.825Z,5.10
2022-08-19T13:05:24.746Z,6.60
2022-08-19T13:07:58.214Z,5.20
2022-08-19T13:10:28.822Z,5.20
2022-08-19T13:13:00.712Z,6.07
2022-08-19T13:15:32.088Z,5.80
2022-08-19T13:17:59.607Z,5.90
2022-08-19T13:20:28.670Z,8.53
2022-08-19T13:22:58.245Z,4.77
2022-08-19T13:25:26.372Z,5.03
2022-08-19T13:27:56.113Z,4.83
2022-08-19T13:30:42.542Z,5.57
2022-08-19T13:33:16.914Z,5.40
2022-08-19T13:35:58.146Z,5.80
2022-08-19T13:38:26.305Z,5.20
2022-08-19T13:40:55.313Z,5.80
2022-08-19T13:43:26.652Z,5.57
2022-08-19T13:45:58.542Z,5.00
2022-08-19T13:48:27.985Z,5.93
2022-08-19T13:50:55.842Z,5.60
2022-08-19T13:53:24.778Z,6.97
2022-08-19T13:55:54.566Z,6.90
2022-08-19T13:58:23.301Z,6.60
2022-08-19T14:00:51.906Z,7.27
2022-08-19T14:03:19.613Z,8.10
2022-08-19T14:05:49.618Z,7.23
2022-08-19T14:08:17.995Z,7.60
2022-08-19T14:10:46.440Z,8.83
2022-08-19T14:13:20.057Z,7.23
2022-08-19T14:15:48.747Z,7.53
2022-08-19T14:18:18.799Z,6.20
2022-08-19T14:20:46.934Z,5.30
2022-08-19T14:23:14.708Z,6.47
2022-08-19T14:25:43.812Z,7.87
2022-08-19T14:28:11.469Z,6.67
2022-08-19T14:30:40.522Z,6.00
2022-08-19T14:33:09.738Z,6.03
2022-08-19T14:35:38.575Z,7.43
2022-08-19T14:38:15.350Z,5.77
2022-08-19T14:40:43.049Z,5.63
2022-08-19T14:43:11.193Z,6.23
2022-08-19T14:45:40.721Z,7.00
2022-08-19T14:48:12.481Z,6.67
2022-08-19T14:50:47.398Z,8.13
2022-08-19T14:53:19.790Z,5.10
2022-08-19T14:55:48.088Z,5.50
2022-08-19T14:58:29.087Z,6.53
2022-08-19T15:01:00.842Z,6.00
2022-08-19T15:03:29.895Z,6.47
2022-08-19T15:05:58.708Z,5.07
2022-08-19T15:08:29.740Z,4.90
2022-08-19T15:10:58.654Z,6.17
2022-08-19T15:13:28.796Z,4.33
2022-08-19T15:15:56.704Z,4.70
2022-08-19T15:18:24.752Z,5.00
2022-08-19T15:20:53.140Z,5.37
2022-08-19T15:23:21.993Z,4.03
2022-08-19T15:25:54.410Z,3.77
2022-08-19T15:28:26.033Z,3.87
2022-08-19T15:30:53.808Z,3.83
2022-08-19T15:33:22.149Z,3.03
2022-08-19T15:35:51.566Z,3.80
2022-08-19T15:38:24.647Z,3.10
2022-08-19T15:40:53.738Z,2.10
2022-08-19T15:43:22.383Z,2.30
2022-08-19T15:45:49.823Z,2.40
2022-08-19T15:48:17.926Z,2.10
2022-08-19T15:50:45.776Z,2.20
2022-08-19T15:53:14.326Z,2.30
2022-08-19T15:55:44.702Z,2.03
2022-08-19T15:58:46.613Z,2.20
2022-08-19T16:01:35.438Z,2.93
2022-08-19T16:04:28.010Z,3.17
2022-08-19T16:06:58.209Z,1.60
2022-08-19T16:09:29.776Z,2.70
2022-08-19T16:12:02.824Z,1.87
2022-08-19T16:14:33.816Z,1.90
2022-08-19T16:17:02.414Z,2.60
2022-08-19T16:19:32.643Z,2.37
2022-08-19T16:22:00.643Z,2.70
2022-08-19T16:24:29.716Z,1.90
2022-08-19T16:26:57.549Z,2.60
2022-08-19T16:29:33.697Z,2.20
2022-08-19T16:32:05.036Z,2.30
2022-08-19T16:34:33.683Z,3.00
2022-08-19T16:37:02.204Z,2.23
2022-08-19T16:39:29.712Z,4.53
2022-08-19T16:41:56.535Z,2.33
2022-08-19T16:44:23.332Z,4.10
2022-08-19T16:46:55.708Z,2.47
2022-08-19T16:49:52.203Z,3.37
2022-08-19T16:52:19.861Z,3.20
2022-08-19T16:54:48.674Z,3.67
2022-08-19T16:57:16.544Z,3.40
2022-08-19T16:59:48.838Z,3.73
2022-08-19T17:02:18.921Z,4.10
2022-08-19T17:04:57.792Z,3.20
2022-08-19T17:07:27.826Z,2.40
2022-08-19T17:09:56.547Z,2.97
2022-08-19T17:12:30.337Z,2.90
2022-08-19T17:15:02.590Z,3.40
2022-08-19T17:17:32.359Z,3.00
2022-08-19T17:20:00.694Z,2.63
2022-08-19T17:22:29.773Z,4.10
2022-08-19T17:24:58.399Z,3.10
2022-08-19T17:27:32.421Z,3.47
2022-08-19T17:30:04.787Z,2.17
2022-08-19T17:32:34.761Z,3.03
2022-08-19T17:35:04.692Z,2.30
2022-08-19T17:37:34.146Z,2.50
2022-08-19T17:40:07.752Z,2.47
2022-08-19T17:42:36.715Z,2.23
2022-08-19T17:45:05.845Z,3.00
2022-08-19T17:47:34.616Z,2.00
2022-08-19T17:50:04.950Z,2.17
2022-08-19T17:52:32.735Z,2.30
2022-08-19T17:55:02.152Z,3.00
2022-08-19T17:57:29.614Z,2.17
2022-08-19T17:59:58.703Z,2.53
2022-08-19T18:02:26.554Z,2.60
2022-08-19T18:04:58.236Z,3.30
2022-08-19T18:07:25.669Z,2.83
2022-08-19T18:09:54.856Z,2.73
2022-08-19T18:12:26.922Z,2.83
2022-08-19T18:14:55.395Z,2.77
2022-08-19T18:17:24.395Z,2.57
2022-08-19T18:19:52.819Z,2.30
2022-08-19T18:22:31.590Z,3.47
2022-08-19T18:25:01.068Z,1.90
2022-08-19T18:27:29.496Z,2.07
2022-08-19T18:29:59.818Z,2.03
2022-08-19T18:32:35.007Z,2.07
2022-08-19T18:35:10.930Z,1.90
2022-08-19T18:37:42.449Z,2.30
2022-08-19T18:40:35.081Z,1.80
2022-08-19T18:43:19.421Z,2.33
2022-08-19T18:46:07.176Z,1.40
2022-08-19T18:48:53.569Z,4.10
2022-08-19T18:51:27.794Z,2.97
2022-08-19T18:53:58.948Z,3.03
2022-08-19T18:56:31.611Z,3.20
2022-08-19T18:58:59.709Z,3.40
2022-08-19T19:01:37.110Z,4.50
2022-08-19T19:04:11.915Z,2.93
2022-08-19T19:06:42.584Z,3.93
2022-08-19T19:09:13.801Z,4.27
2022-08-19T19:11:44.170Z,2.07
2022-08-19T19:14:32.495Z,2.20
2022-08-19T19:17:07.845Z,1.60
2022-08-19T19:19:35.640Z,5.90
2022-08-19T19:22:04.777Z,3.20
2022-08-19T19:24:33.414Z,4.93
2022-08-19T19:27:10.162Z,4.23
2022-08-19T19:29:37.912Z,2.43
2022-08-19T19:32:08.369Z,1.70
2022-08-19T19:34:38.467Z,4.63
2022-08-19T19:37:07.068Z,4.97
2022-08-19T19:39:46.446Z,3.30
2022-08-19T19:42:21.269Z,2.07
2022-08-19T19:44:51.257Z,3.80
2022-08-19T19:47:25.184Z,7.50
2022-08-19T19:52:43.465Z,6.23
2022-08-19T19:55:15.639Z,4.60
2022-08-19T19:57:46.023Z,2.50
2022-08-19T20:00:16.463Z,4.63
2022-08-19T20:02:47.879Z,2.83
2022-08-19T20:05:21.430Z,4.07
2022-08-19T20:08:09.464Z,1.80
2022-08-19T20:10:39.209Z,1.70
2022-08-19T20:13:08.855Z,2.83
2022-08-19T20:15:42.128Z,3.20
2022-08-19T20:18:14.798Z,5.10
2022-08-19T20:20:45.086Z,3.30
2022-08-19T20:23:13.338Z,3.97
2022-08-19T20:25:40.640Z,2.30
2022-08-19T20:28:09.191Z,4.10
2022-08-19T20:30:39.069Z,2.43
2022-08-19T20:33:15.973Z,2.27
2022-08-19T20:35:45.043Z,2.70
2022-08-19T20:38:13.312Z,3.23
2022-08-19T20:40:41.211Z,2.83
2022-08-19T20:43:13.778Z,2.43
2022-08-19T20:45:40.987Z,1.90
2022-08-19T20:48:10.488Z,2.30
2022-08-19T20:50:37.759Z,2.80
2022-08-19T20:53:17.651Z,1.93
2022-08-19T20:55:49.240Z,3.50
2022-08-19T20:58:22.354Z,2.00
2022-08-19T21:00:53.055Z,2.80
2022-08-19T21:03:23.931Z,2.27
2022-08-19T21:05:52.299Z,1.97
2022-08-19T21:08:20.163Z,2.63
2022-08-19T21:10:49.829Z,2.90
2022-08-19T21:13:17.838Z,3.17
2022-08-19T21:15:45.223Z,1.93
2022-08-19T21:18:14.486Z,2.20
2022-08-19T21:20:44.226Z,2.50
2022-08-19T21:23:19.475Z,2.60
2022-08-19T21:25:54.033Z,2.03
2022-08-19T21:28:35.009Z,4.20
2022-08-19T21:31:06.202Z,1.50
2022-08-19T21:33:34.724Z,2.00
2022-08-19T21:36:03.453Z,1.90
2022-08-19T21:38:31.896Z,2.00
2022-08-19T21:40:59.148Z,2.27
2022-08-19T21:43:27.629Z,2.30
2022-08-19T21:45:55.680Z,1.90
2022-08-19T21:48:23.846Z,3.00
2022-08-19T21:50:50.908Z,3.67
2022-08-19T21:53:19.225Z,2.20
2022-08-19T21:55:53.762Z,3.03
2022-08-19T21:58:28.381Z,2.50
2022-08-19T22:01:01.658Z,1.73
2022-08-19T22:03:30.990Z,1.20
2022-08-19T22:05:58.759Z,3.70
2022-08-19T22:08:27.246Z,4.37
2022-08-19T22:10:55.144Z,3.07
2022-08-19T22:13:23.490Z,3.97
2022-08-19T22:15:51.953Z,3.77
2022-08-19T22:18:20.358Z,5.17
2022-08-19T22:20:48.156Z,2.83
2022-08-19T22:23:15.795Z,4.33
2022-08-19T22:25:46.755Z,3.17
2022-08-19T22:28:18.829Z,4.87
2022-08-19T22:30:51.257Z,3.73
2022-08-19T22:33:20.687Z,4.83
2022-08-19T22:35:51.136Z,3.93
2022-08-19T22:38:19.428Z,2.27
2022-08-19T22:40:49.140Z,1.70
2022-08-19T22:43:22.728Z,1.80
2022-08-19T22:45:53.781Z,2.00
2022-08-19T22:48:25.426Z,1.40
2022-08-19T22:51:12.929Z,2.00
2022-08-19T22:53:43.056Z,2.07
2022-08-19T22:56:15.329Z,4.67
2022-08-19T22:58:43.550Z,2.60
2022-08-19T23:01:24.847Z,2.07
2022-08-19T23:03:56.555Z,4.87
2022-08-19T23:06:29.755Z,2.27
2022-08-19T23:09:05.350Z,4.63
2022-08-19T23:11:41.912Z,3.80
2022-08-19T23:14:11.278Z,5.43
2022-08-19T23:16:39.633Z,4.63
2022-08-19T23:19:09.268Z,2.10
2022-08-19T23:21:38.558Z,5.80
2022-08-19T23:24:07.547Z,4.00
2022-08-19T23:26:36.182Z,6.10
2022-08-19T23:29:24.505Z,4.63
2022-08-19T23:31:51.763Z,6.10
2022-08-19T23:34:19.809Z,4.47
2022-08-19T23:36:50.578Z,2.43
2022-08-19T23:39:18.125Z,1.90
2022-08-19T23:41:46.421Z,6.87
2022-08-19T23:44:15.130Z,4.30
2022-08-19T23:46:54.945Z,6.80
2022-08-19T23:49:25.256Z,3.17
2022-08-19T23:51:54.708Z,6.13
2022-08-19T23:54:21.835Z,2.27
2022-08-19T23:56:49.976Z,5.13
2022-08-19T23:59:19.580Z,3.10
